createdAt,value
2022-11-07T00:00:49.915Z,97840.53
2022-11-07T00:03:19.074Z,97845.41
2022-11-07T00:05:47.739Z,97853.56
2022-11-07T00:08:16.236Z,97843.69
2022-11-07T00:10:45.265Z,97843.34
2022-11-07T00:13:15.383Z,97850.19
2022-11-07T00:15:44.044Z,97842.16
2022-11-07T00:18:13.019Z,97844.59
2022-11-07T00:20:41.795Z,97844.75
2022-11-07T00:23:10.258Z,97849.81
2022-11-07T00:25:38.785Z,97852.03
2022-11-07T00:28:07.735Z,97852.03
2022-11-07T00:30:37.649Z,97845.81
2022-11-07T00:33:06.334Z,97842.22
2022-11-07T00:35:35.269Z,97844.66
2022-11-07T00:38:03.918Z,97850.69
2022-11-07T00:40:32.764Z,97845.25
2022-11-07T00:43:01.209Z,97857.50
2022-11-07T00:45:29.747Z,97853.09
2022-11-07T00:47:59.682Z,97851.28
2022-11-07T00:50:28.161Z,97852.53
2022-11-07T00:52:58.964Z,97849.94
2022-11-07T00:55:28.032Z,97856.13
2022-11-07T00:57:57.379Z,97853.97
2022-11-07T01:00:26.275Z,97851.56
2022-11-07T01:03:09.562Z,97857.56
2022-11-07T01:05:40.202Z,97854.94
2022-11-07T01:08:08.727Z,97866.03
2022-11-07T01:10:42.613Z,97865.22
2022-11-07T01:13:11.788Z,97869.47
2022-11-07T01:15:42.927Z,97870.06
2022-11-07T01:18:11.461Z,97866.28
2022-11-07T01:20:42.127Z,97873.31
2022-11-07T01:23:10.954Z,97873.13
2022-11-07T01:25:40.560Z,97860.06
2022-11-07T01:28:11.186Z,97862.50
2022-11-07T01:30:41.049Z,97862.13
2022-11-07T01:33:10.637Z,97856.09
2022-11-07T01:35:41.840Z,97868.16
2022-11-07T01:38:10.266Z,97870.56
2022-11-07T01:40:57.384Z,97859.75
2022-11-07T01:43:44.279Z,97858.94
2022-11-07T01:46:13.194Z,97864.97
2022-11-07T01:48:45.970Z,97861.38
2022-11-07T01:51:18.404Z,97863.00
2022-11-07T01:53:47.693Z,97859.38
2022-11-07T01:56:20.159Z,97866.22
2022-11-07T01:58:49.655Z,97861.00
2022-11-07T02:01:19.467Z,97861.81
2022-11-07T02:03:49.795Z,97865.03
2022-11-07T02:06:29.162Z,97857.00
2022-11-07T02:08:57.669Z,97849.00
2022-11-07T02:11:26.331Z,97847.38
2022-11-07T02:13:55.595Z,97843.78
2022-11-07T02:16:24.318Z,97842.78
2022-11-07T02:18:53.056Z,97848.81
2022-11-07T02:21:41.983Z,97846.19
2022-11-07T02:24:27.213Z,97846.84
2022-11-07T02:26:58.459Z,97851.03
2022-11-07T02:29:29.078Z,97852.66
2022-11-07T02:32:07.125Z,97855.88
2022-11-07T02:34:36.426Z,97853.09
2022-11-07T02:37:11.912Z,97854.50
2022-11-07T02:39:42.465Z,97863.97
2022-11-07T02:42:11.719Z,97865.59
2022-11-07T02:44:40.403Z,97862.19
2022-11-07T02:47:08.984Z,97866.03
2022-11-07T02:49:37.395Z,97855.38
2022-11-07T02:52:06.722Z,97853.22
2022-11-07T02:54:36.106Z,97857.25
2022-11-07T02:57:06.465Z,97861.75
2022-11-07T02:59:34.963Z,97858.13
2022-11-07T03:02:04.037Z,97865.78
2022-11-07T03:04:32.530Z,97869.00
2022-11-07T03:07:01.534Z,97874.22
2022-11-07T03:09:29.940Z,97862.63
2022-11-07T03:11:58.403Z,97865.84
2022-11-07T03:14:28.300Z,97858.63
2022-11-07T03:16:56.811Z,97868.06
2022-11-07T03:19:25.461Z,97866.69
2022-11-07T03:21:56.712Z,97867.69
2022-11-07T03:24:25.322Z,97874.16
2022-11-07T03:26:56.979Z,97868.38
2022-11-07T03:29:25.694Z,97871.41
2022-11-07T03:31:55.429Z,97879.03
2022-11-07T03:34:24.551Z,97873.63
2022-11-07T03:36:53.158Z,97879.84
2022-11-07T03:39:25.642Z,97889.91
2022-11-07T03:41:55.755Z,97878.47
2022-11-07T03:44:24.435Z,97880.09
2022-11-07T03:46:54.903Z,97873.88
2022-11-07T03:49:24.207Z,97875.31
2022-11-07T03:51:52.764Z,97883.75
2022-11-07T03:54:21.781Z,97883.56
2022-11-07T03:56:50.309Z,97878.94
2022-11-07T03:59:18.822Z,97875.34
2022-11-07T04:01:48.428Z,97869.13
2022-11-07T04:04:18.462Z,97869.13
2022-11-07T04:06:47.542Z,97875.75
2022-11-07T04:09:16.203Z,97874.94
2022-11-07T04:12:01.719Z,97869.34
2022-11-07T04:14:48.252Z,97870.97
2022-11-07T04:17:19.946Z,97871.78
2022-11-07T04:19:52.186Z,97870.97
2022-11-07T04:22:20.670Z,97876.19
2022-11-07T04:24:49.385Z,97870.31
2022-11-07T04:27:36.530Z,97872.16
2022-11-07T04:30:20.184Z,97885.41
2022-11-07T04:32:49.758Z,97881.38
2022-11-07T04:35:22.398Z,97881.38
2022-11-07T04:37:51.004Z,97868.91
2022-11-07T04:40:20.329Z,97872.16
2022-11-07T04:42:49.857Z,97881.81
2022-11-07T04:45:19.191Z,97875.38
2022-11-07T04:47:48.746Z,97868.13
2022-11-07T04:50:21.067Z,97871.78
2022-11-07T04:52:50.210Z,97872.59
2022-11-07T04:55:22.114Z,97883.81
2022-11-07T04:57:50.671Z,97883.47
2022-11-07T05:00:21.654Z,97875.00
2022-11-07T05:02:51.240Z,97887.69
2022-11-07T05:05:22.184Z,97887.69
2022-11-07T05:07:50.897Z,97889.47
2022-11-07T05:10:24.426Z,97889.47
2022-11-07T05:12:53.616Z,97891.91
2022-11-07T05:15:22.786Z,97905.41
2022-11-07T05:17:52.004Z,97895.94
2022-11-07T05:20:32.172Z,97892.34
2022-11-07T05:23:15.857Z,97899.38
2022-11-07T05:25:47.615Z,97907.84
2022-11-07T05:28:23.919Z,97900.78
2022-11-07T05:31:00.113Z,97903.41
2022-11-07T05:33:29.491Z,97902.41
2022-11-07T05:36:10.054Z,97894.78
2022-11-07T05:38:38.712Z,97900.00
2022-11-07T05:41:07.304Z,97904.84
2022-11-07T05:43:35.719Z,97901.59
2022-11-07T05:46:04.789Z,97897.19
2022-11-07T05:48:33.568Z,97905.84
2022-11-07T05:51:03.661Z,97904.84
2022-11-07T05:53:32.352Z,97898.00
2022-11-07T05:56:01.292Z,97912.88
2022-11-07T05:58:29.884Z,97912.88
2022-11-07T06:01:03.289Z,97913.44
2022-11-07T06:03:31.975Z,97927.34
2022-11-07T06:06:02.138Z,97928.16
2022-11-07T06:08:30.723Z,97936.00
2022-11-07T06:10:59.677Z,97933.38
2022-11-07T06:13:29.175Z,97928.97
2022-11-07T06:15:59.427Z,97936.63
2022-11-07T06:18:27.876Z,97944.66
2022-11-07T06:20:56.376Z,97941.06
2022-11-07T06:23:26.551Z,97939.25
2022-11-07T06:25:55.360Z,97938.44
2022-11-07T06:28:23.965Z,97933.81
2022-11-07T06:30:52.787Z,97941.66
2022-11-07T06:33:21.384Z,97935.44
2022-11-07T06:35:50.137Z,97933.81
2022-11-07T06:38:18.661Z,97940.03
2022-11-07T06:40:48.551Z,97931.19
2022-11-07T06:43:20.799Z,97934.81
2022-11-07T06:45:50.263Z,97944.28
2022-11-07T06:48:18.725Z,97942.25
2022-11-07T06:50:47.309Z,97944.28
2022-11-07T06:53:16.150Z,97945.91
2022-11-07T06:55:44.947Z,97952.72
2022-11-07T06:58:14.824Z,97952.72
2022-11-07T07:00:43.452Z,97957.97
2022-11-07T07:03:13.497Z,97953.53
2022-11-07T07:05:42.256Z,97962.03
2022-11-07T07:08:14.913Z,97966.22
2022-11-07T07:10:46.286Z,97957.59
2022-11-07T07:13:16.614Z,97969.66
2022-11-07T07:15:53.976Z,97972.28
2022-11-07T07:18:23.316Z,97979.94
2022-11-07T07:20:54.441Z,97975.53
2022-11-07T07:23:23.257Z,97976.53
2022-11-07T07:25:52.925Z,97982.56
2022-11-07T07:28:23.466Z,97977.94
2022-11-07T07:30:52.325Z,97976.13
2022-11-07T07:33:20.999Z,97984.63
2022-11-07T07:35:49.623Z,97984.63
2022-11-07T07:38:18.478Z,97982.59
2022-11-07T07:40:46.904Z,97991.28
2022-11-07T07:43:15.746Z,97996.69
2022-11-07T07:45:45.972Z,98001.91
2022-11-07T07:48:14.462Z,98001.91
2022-11-07T07:50:43.066Z,98005.56
2022-11-07T07:53:11.540Z,98002.13
2022-11-07T07:55:40.102Z,98004.53
2022-11-07T07:58:08.670Z,97998.31
2022-11-07T08:00:37.875Z,98010.56
2022-11-07T08:03:10.852Z,98013.19
2022-11-07T08:05:40.771Z,98011.22
2022-11-07T08:08:10.480Z,98015.63
2022-11-07T08:10:43.295Z,98012.38
2022-11-07T08:13:12.049Z,98019.41
2022-11-07T08:15:41.070Z,98023.66
2022-11-07T08:18:10.978Z,98022.84
2022-11-07T08:20:40.099Z,98027.69
2022-11-07T08:23:16.495Z,98032.50
2022-11-07T08:25:52.050Z,98038.53
2022-11-07T08:28:22.702Z,98046.22
2022-11-07T08:30:59.295Z,98047.84
2022-11-07T08:33:29.478Z,98048.03
2022-11-07T08:36:01.142Z,98047.03
2022-11-07T08:38:32.265Z,98052.66
2022-11-07T08:41:01.688Z,98049.81
2022-11-07T08:43:30.714Z,98045.41
2022-11-07T08:45:59.233Z,98047.03
2022-11-07T08:48:29.129Z,98052.25
2022-11-07T08:50:59.559Z,98057.50
2022-11-07T08:53:29.062Z,98055.06
2022-11-07T08:56:04.048Z,98062.72
2022-11-07T08:58:32.904Z,98053.84
2022-11-07T09:01:01.597Z,98053.06
2022-11-07T09:03:45.009Z,98048.63
2022-11-07T09:06:15.322Z,98055.50
2022-11-07T09:08:43.796Z,98054.69
2022-11-07T09:11:15.679Z,98053.84
2022-11-07T09:13:44.865Z,98057.13
2022-11-07T09:16:17.512Z,98059.72
2022-11-07T09:18:49.566Z,98064.16
2022-11-07T09:21:22.623Z,98065.34
2022-11-07T09:23:51.927Z,98061.72
2022-11-07T09:26:20.539Z,98061.53
2022-11-07T09:28:52.332Z,98069.22
2022-11-07T09:31:23.242Z,98065.56
2022-11-07T09:33:53.228Z,98067.38
2022-11-07T09:36:24.297Z,98076.84
2022-11-07T09:38:56.329Z,98074.88
2022-11-07T09:41:45.109Z,98073.69
2022-11-07T09:44:51.674Z,98080.09
2022-11-07T09:47:26.929Z,98081.53
2022-11-07T09:50:01.875Z,98077.09
2022-11-07T09:52:40.686Z,98080.53
2022-11-07T09:55:22.077Z,98093.25
2022-11-07T09:57:54.134Z,98089.00
2022-11-07T10:00:33.268Z,98092.22
2022-11-07T10:03:03.509Z,98093.03
2022-11-07T10:05:48.362Z,98098.28
2022-11-07T10:08:26.913Z,98095.03
2022-11-07T10:11:02.054Z,98101.69
2022-11-07T10:14:00.705Z,98105.13
2022-11-07T10:16:49.041Z,98103.94
2022-11-07T10:19:35.415Z,98103.13
2022-11-07T10:22:24.677Z,98107.19
2022-11-07T10:25:21.404Z,98098.97
2022-11-07T10:28:03.808Z,98090.91
2022-11-07T10:30:32.346Z,98098.19
2022-11-07T10:33:12.127Z,98094.38
2022-11-07T10:35:47.905Z,98089.78
2022-11-07T10:38:27.575Z,98097.41
2022-11-07T10:40:56.465Z,98091.00
2022-11-07T10:43:35.698Z,98096.03
2022-11-07T10:46:07.949Z,98096.66
2022-11-07T10:48:36.829Z,98094.84
2022-11-07T10:51:05.570Z,98095.47
2022-11-07T10:53:45.407Z,98089.22
2022-11-07T10:56:15.999Z,98086.03
2022-11-07T10:58:48.081Z,98081.03
2022-11-07T11:01:26.251Z,98076.22
2022-11-07T11:03:55.379Z,98076.44
2022-11-07T11:06:31.723Z,98065.78
2022-11-07T11:09:17.285Z,98060.78
2022-11-07T11:11:52.889Z,98063.84
2022-11-07T11:14:22.840Z,98066.88
2022-11-07T11:16:57.315Z,98069.75
2022-11-07T11:19:28.943Z,98070.34
2022-11-07T11:22:00.017Z,98062.09
2022-11-07T11:24:38.561Z,98058.47
2022-11-07T11:27:16.602Z,98062.09
2022-11-07T11:29:55.983Z,98058.47
2022-11-07T11:32:32.518Z,98051.25
2022-11-07T11:35:18.254Z,98045.19
2022-11-07T11:37:54.701Z,98050.22
2022-11-07T11:40:26.566Z,98043.97
2022-11-07T11:43:05.364Z,98035.13
2022-11-07T11:46:00.417Z,98038.94
2022-11-07T11:48:36.630Z,98032.50
2022-11-07T11:51:16.175Z,98030.47
2022-11-07T11:53:44.669Z,98031.06
2022-11-07T11:56:39.075Z,98033.94
2022-11-07T11:59:49.981Z,98037.38
2022-11-07T12:03:12.137Z,98031.72
2022-11-07T12:06:17.298Z,98025.69
2022-11-07T12:09:29.257Z,98024.69
2022-11-07T12:12:25.314Z,98029.53
2022-11-07T12:15:33.133Z,98035.16
2022-11-07T12:18:16.794Z,98035.56
2022-11-07T12:21:04.018Z,98035.56
2022-11-07T12:23:53.171Z,98031.91
2022-11-07T12:26:31.590Z,98039.59
2022-11-07T12:29:21.301Z,98032.31
2022-11-07T12:32:06.626Z,98032.75
2022-11-07T12:35:09.369Z,98028.13
2022-11-07T12:38:08.119Z,98028.31
2022-11-07T12:40:52.813Z,98026.31
2022-11-07T12:43:46.296Z,98034.38
2022-11-07T12:46:27.664Z,98028.72
2022-11-07T12:49:51.952Z,98024.13
2022-11-07T12:52:42.628Z,98012.59
2022-11-07T12:55:24.001Z,98019.44
2022-11-07T12:57:56.371Z,98014.63
2022-11-07T13:00:29.864Z,98017.44
2022-11-07T13:03:54.671Z,98018.88
2022-11-07T13:06:37.087Z,98010.19
2022-11-07T13:09:20.565Z,98016.03
2022-11-07T13:12:00.177Z,98014.03
2022-11-07T13:14:34.694Z,98018.88
2022-11-07T13:17:20.255Z,98025.53
2022-11-07T13:20:01.588Z,98018.06
2022-11-07T13:22:36.301Z,98026.34
2022-11-07T13:25:26.206Z,98020.69
2022-11-07T13:28:30.457Z,98009.81
2022-11-07T13:31:06.573Z,98012.25
2022-11-07T13:33:37.377Z,98016.66
2022-11-07T13:36:28.548Z,98023.91
2022-11-07T13:39:01.438Z,98014.66
2022-11-07T13:41:31.958Z,98025.13
2022-11-07T13:44:04.566Z,98022.31
2022-11-07T13:46:50.417Z,98017.28
2022-11-07T13:49:24.600Z,98025.53
2022-11-07T13:51:59.544Z,98021.69
2022-11-07T13:54:39.219Z,98025.75
2022-11-07T13:57:16.504Z,98026.34
2022-11-07T13:59:51.899Z,98028.78
2022-11-07T14:02:22.571Z,98025.16
2022-11-07T14:05:15.182Z,98027.59
2022-11-07T14:07:49.345Z,98028.41
2022-11-07T14:10:28.003Z,98031.84
2022-11-07T14:13:07.430Z,98030.63
2022-11-07T14:15:37.697Z,98037.66
2022-11-07T14:18:07.282Z,98034.66
2022-11-07T14:20:35.800Z,98036.06
2022-11-07T14:23:13.413Z,98032.25
2022-11-07T14:25:42.152Z,98032.66
2022-11-07T14:28:17.942Z,98032.44
2022-11-07T14:30:53.063Z,98036.06
2022-11-07T14:33:24.746Z,98037.91
2022-11-07T14:35:53.949Z,98033.25
2022-11-07T14:38:26.310Z,98033.06
2022-11-07T14:40:59.113Z,98036.47
2022-11-07T14:43:30.965Z,98036.28
2022-11-07T14:46:14.053Z,98030.03
2022-11-07T14:48:45.309Z,98036.09
2022-11-07T14:51:19.027Z,98033.25
2022-11-07T14:54:00.755Z,98029.63
2022-11-07T14:56:35.374Z,98035.28
2022-11-07T14:59:05.649Z,98037.91
2022-11-07T15:01:35.843Z,98044.16
2022-11-07T15:04:17.677Z,98035.88
2022-11-07T15:06:47.095Z,98035.06
2022-11-07T15:09:17.443Z,98034.88
2022-11-07T15:12:00.650Z,98036.88
2022-11-07T15:14:35.622Z,98031.63
2022-11-07T15:17:05.544Z,98026.38
2022-11-07T15:19:36.803Z,98028.81
2022-11-07T15:22:07.604Z,98031.63
2022-11-07T15:24:44.361Z,98025.38
2022-11-07T15:27:23.004Z,98033.06
2022-11-07T15:29:55.173Z,98025.19
2022-11-07T15:32:27.206Z,98030.03
2022-11-07T15:35:12.288Z,98030.44
2022-11-07T15:37:55.048Z,98024.56
2022-11-07T15:40:26.841Z,98034.06
2022-11-07T15:42:55.527Z,98031.44
2022-11-07T15:45:24.354Z,98032.44
2022-11-07T15:47:53.065Z,98034.06
2022-11-07T15:50:25.521Z,98024.78
2022-11-07T15:52:55.501Z,98042.53
2022-11-07T15:55:25.816Z,98043.34
2022-11-07T15:57:55.769Z,98037.28
2022-11-07T16:00:27.541Z,98033.66
2022-11-07T16:02:56.524Z,98038.09
2022-11-07T16:05:25.210Z,98043.34
2022-11-07T16:07:53.689Z,98046.97
2022-11-07T16:10:27.122Z,98044.16
2022-11-07T16:12:58.719Z,98042.53
2022-11-07T16:15:30.999Z,98045.97
2022-11-07T16:17:59.526Z,98045.16
2022-11-07T16:20:28.042Z,98037.09
2022-11-07T16:22:56.559Z,98044.34
2022-11-07T16:25:27.652Z,98038.50
2022-11-07T16:28:00.469Z,98036.47
2022-11-07T16:30:29.070Z,98040.91
2022-11-07T16:32:57.774Z,98034.88
2022-11-07T16:35:26.331Z,98034.25
2022-11-07T16:37:55.190Z,98034.25
2022-11-07T16:40:24.945Z,98035.28
2022-11-07T16:42:54.815Z,98039.91
2022-11-07T16:45:23.323Z,98051.38
2022-11-07T16:47:51.795Z,98049.56
2022-11-07T16:50:20.997Z,98045.94
2022-11-07T16:52:50.017Z,98053.00
2022-11-07T16:55:20.852Z,98054.63
2022-11-07T16:57:49.788Z,98056.63
2022-11-07T17:00:24.508Z,98053.81
2022-11-07T17:02:53.146Z,98056.25
2022-11-07T17:05:22.098Z,98056.25
2022-11-07T17:07:51.156Z,98057.84
2022-11-07T17:10:20.474Z,98065.13
2022-11-07T17:12:49.094Z,98057.84
2022-11-07T17:15:20.127Z,98058.06
2022-11-07T17:17:48.840Z,98057.03
2022-11-07T17:20:49.075Z,98060.47
2022-11-07T17:23:12.323Z,98063.09
2022-11-07T17:25:41.342Z,98065.94
2022-11-07T17:28:10.727Z,98071.59
2022-11-07T17:30:40.706Z,98067.53
2022-11-07T17:33:09.258Z,98061.50
2022-11-07T17:35:39.021Z,98059.88
2022-11-07T17:38:07.956Z,98067.13
2022-11-07T17:40:36.876Z,98066.13
2022-11-07T17:43:05.514Z,98065.13
2022-11-07T17:45:34.870Z,98066.94
2022-11-07T17:48:05.294Z,98067.94
2022-11-07T17:50:33.771Z,98070.56
2022-11-07T17:53:02.315Z,98064.31
2022-11-07T17:55:30.942Z,98072.38
2022-11-07T17:57:59.790Z,98068.75
2022-11-07T18:00:28.685Z,98068.56
2022-11-07T18:02:57.470Z,98067.75
2022-11-07T18:05:33.361Z,98073.00
2022-11-07T18:08:03.149Z,98067.13
2022-11-07T18:10:32.128Z,98078.25
2022-11-07T18:13:00.759Z,98068.56
2022-11-07T18:15:29.406Z,98063.50
2022-11-07T18:17:57.904Z,98068.75
2022-11-07T18:20:29.170Z,98066.13
2022-11-07T18:22:57.794Z,98064.50
2022-11-07T18:25:27.585Z,98065.13
2022-11-07T18:27:56.416Z,98068.75
2022-11-07T18:30:25.514Z,98071.38
2022-11-07T18:32:54.226Z,98069.56
2022-11-07T18:35:23.170Z,98061.88
2022-11-07T18:37:53.070Z,98065.53
2022-11-07T18:40:21.784Z,98065.72
2022-11-07T18:42:50.283Z,98073.56
2022-11-07T18:45:18.949Z,98077.19
2022-11-07T18:47:47.508Z,98078.00
2022-11-07T18:50:16.808Z,98071.94
2022-11-07T18:52:45.857Z,98073.78
2022-11-07T18:55:15.988Z,98075.59
2022-11-07T18:57:44.504Z,98075.78
2022-11-07T19:00:15.250Z,98074.78
2022-11-07T19:02:44.652Z,98069.53
2022-11-07T19:05:13.154Z,98064.47
2022-11-07T19:07:44.859Z,98069.53
2022-11-07T19:10:16.317Z,98074.16
2022-11-07T19:12:45.308Z,98072.56
2022-11-07T19:15:14.934Z,98075.78
2022-11-07T19:17:43.672Z,98069.94
2022-11-07T19:20:13.289Z,98066.50
2022-11-07T19:22:41.763Z,98067.50
2022-11-07T19:25:11.074Z,98065.88
2022-11-07T19:27:41.338Z,98066.09
2022-11-07T19:30:11.974Z,98065.47
2022-11-07T19:32:41.379Z,98068.31
2022-11-07T19:35:10.678Z,98061.00
2022-11-07T19:37:39.484Z,98064.63
2022-11-07T19:40:10.175Z,98060.41
2022-11-07T19:42:40.353Z,98052.13
2022-11-07T19:45:10.035Z,98060.97
2022-11-07T19:47:38.550Z,98063.75
2022-11-07T19:50:08.186Z,98056.94
2022-11-07T19:52:36.801Z,98060.72
2022-11-07T19:55:06.949Z,98057.50
2022-11-07T19:57:36.575Z,98056.09
2022-11-07T20:00:10.774Z,98052.84
2022-11-07T20:02:44.349Z,98046.19
2022-11-07T20:05:13.534Z,98053.44
2022-11-07T20:07:42.131Z,98055.66
2022-11-07T20:10:10.982Z,98052.38
2022-11-07T20:12:40.208Z,98063.88
2022-11-07T20:15:12.192Z,98060.03
2022-11-07T20:17:42.001Z,98064.03
2022-11-07T20:20:13.906Z,98067.84
2022-11-07T20:22:47.777Z,98067.25
2022-11-07T20:25:17.084Z,98063.97
2022-11-07T20:27:46.162Z,98066.41
2022-11-07T20:30:16.769Z,98065.44
2022-11-07T20:32:46.636Z,98074.09
2022-11-07T20:35:15.861Z,98067.00
2022-11-07T20:37:44.538Z,98074.63
2022-11-07T20:40:14.813Z,98076.66
2022-11-07T20:42:43.423Z,98072.59
2022-11-07T20:45:13.396Z,98071.16
2022-11-07T20:47:43.330Z,98071.16
2022-11-07T20:50:11.946Z,98074.78
2022-11-07T20:52:41.133Z,98061.91
2022-11-07T20:55:10.163Z,98064.69
2022-11-07T20:57:38.638Z,98066.50
2022-11-07T21:00:08.895Z,98062.47
2022-11-07T21:02:37.965Z,98060.63
2022-11-07T21:05:17.765Z,98063.38
2022-11-07T21:07:48.473Z,98062.56
2022-11-07T21:10:17.942Z,98065.41
2022-11-07T21:12:46.608Z,98062.13
2022-11-07T21:15:15.512Z,98062.91
2022-11-07T21:17:44.033Z,98068.97
2022-11-07T21:20:15.004Z,98075.41
2022-11-07T21:22:43.628Z,98070.97
2022-11-07T21:25:12.252Z,98068.53
2022-11-07T21:27:41.308Z,98066.91
2022-11-07T21:30:13.064Z,98067.94
2022-11-07T21:32:42.121Z,98060.06
2022-11-07T21:35:11.915Z,98061.69
2022-11-07T21:37:41.817Z,98057.47
2022-11-07T21:40:13.323Z,98056.44
2022-11-07T21:42:41.764Z,98048.59
2022-11-07T21:45:12.341Z,98044.00
2022-11-07T21:47:45.586Z,98047.22
2022-11-07T21:50:42.502Z,98051.44
2022-11-07T21:53:07.909Z,98045.59
2022-11-07T21:55:36.714Z,98041.97
2022-11-07T21:58:05.175Z,98035.94
2022-11-07T22:00:36.636Z,98041.38
2022-11-07T22:03:07.603Z,98039.56
2022-11-07T22:05:39.513Z,98024.84
2022-11-07T22:08:09.499Z,98021.59
2022-11-07T22:10:38.302Z,98025.41
2022-11-07T22:13:07.261Z,98022.56
2022-11-07T22:15:36.245Z,98022.97
2022-11-07T22:18:04.834Z,98013.88
2022-11-07T22:20:33.340Z,98010.41
2022-11-07T22:23:01.904Z,98015.19
2022-11-07T22:25:33.817Z,98009.72
2022-11-07T22:28:02.801Z,98000.97
2022-11-07T22:30:31.486Z,98007.34
2022-11-07T22:33:00.008Z,98000.31
2022-11-07T22:35:28.550Z,98003.69
2022-11-07T22:37:57.482Z,98003.47
2022-11-07T22:40:26.065Z,98010.44
2022-11-07T22:42:55.928Z,97999.56
2022-11-07T22:45:24.465Z,97997.88
2022-11-07T22:47:52.939Z,97994.28
2022-11-07T22:50:21.635Z,97997.06
2022-11-07T22:52:50.143Z,97996.41
2022-11-07T22:55:18.710Z,97989.47
2022-11-07T22:57:47.155Z,97988.50
2022-11-07T23:00:22.206Z,97988.88
2022-11-07T23:02:51.480Z,97988.78
2022-11-07T23:05:20.895Z,97985.19
2022-11-07T23:07:51.352Z,97984.38
2022-11-07T23:10:20.974Z,97981.97
2022-11-07T23:12:49.478Z,97982.94
2022-11-07T23:15:19.945Z,97977.44
2022-11-07T23:17:48.435Z,97970.16
2022-11-07T23:20:30.693Z,97970.72
2022-11-07T23:22:59.239Z,97968.84
2022-11-07T23:25:27.765Z,97973.63
2022-11-07T23:27:56.266Z,97960.38
2022-11-07T23:30:26.186Z,97965.72
2022-11-07T23:32:54.573Z,97964.66
2022-11-07T23:35:23.600Z,97964.56
2022-11-07T23:37:52.070Z,97962.72
2022-11-07T23:40:21.016Z,97971.34
2022-11-07T23:42:49.422Z,97961.34
2022-11-07T23:45:35.865Z,97958.47
2022-11-07T23:48:23.919Z,97959.47
2022-11-07T23:51:04.288Z,97969.47
2022-11-07T23:53:51.887Z,97961.06
2022-11-07T23:56:21.991Z,97964.88
2022-11-07T23:59:13.455Z,97962.44
